Time;durP1;ratioP1;P1;durP2;ratioP2;P2;SDS_P1;SDS_P2;PMS_P1;PMS_P2;Temp;Humidity;BMP_temperature;BMP_pressure;BME280_temperature;BME280_humidity;BME280_pressure;Samples;Min_cycle;Max_cycle;Signal;HPM_P1;HPM_P2
2023/01/16 00:02:40;;;;;;;8.88;4.47;;;;;;;;;;12837821;19;20018;-66
2023/01/16 00:06:57;;;;;;;7.00;4.07;;;;;;;;;;12837480;19;20434;-67
2023/01/16 00:11:15;;;;;;;8.02;4.82;;;;;;;;;;12836641;19;20425;-67
2023/01/16 00:15:33;;;;;;;6.22;4.35;;;;;;;;;;12837583;19;20433;-66
2023/01/16 00:19:50;;;;;;;6.47;3.60;;;;;;;;;;12835572;19;20303;-67
2023/01/16 00:24:08;;;;;;;6.60;4.37;;;;;;;;;;12836021;19;20445;-66
2023/01/16 00:28:25;;;;;;;11.25;5.43;;;;;;;;;;12836588;19;20445;-66
2023/01/16 00:32:43;;;;;;;16.02;7.28;;;;;;;;;;12834988;19;20469;-66
2023/01/16 00:37:00;;;;;;;11.35;6.03;;;;;;;;;;12848453;19;20430;-67
2023/01/16 00:41:18;;;;;;;8.83;5.40;;;;;;;;;;12847973;19;20438;-66
2023/01/16 00:45:36;;;;;;;10.53;5.40;;;;;;;;;;12850504;19;20461;-66
2023/01/16 00:49:54;;;;;;;10.35;5.28;;;;;;;;;;12847365;19;20437;-66
2023/01/16 00:54:11;;;;;;;12.23;5.05;;;;;;;;;;12847603;19;20388;-67
2023/01/16 00:58:29;;;;;;;8.52;4.78;;;;;;;;;;12848346;19;20439;-66
2023/01/16 01:03:01;;;;;;;10.05;4.25;;;;;;;;;;12844601;19;20334;-68
2023/01/16 01:07:37;;;;;;;7.07;4.18;;;;;;;;;;12848412;19;20437;-66
2023/01/16 01:11:58;;;;;;;7.00;4.65;;;;;;;;;;12846947;19;20425;-66
2023/01/16 01:16:16;;;;;;;7.00;4.30;;;;;;;;;;12846781;19;20349;-66
2023/01/16 01:20:33;;;;;;;7.20;3.72;;;;;;;;;;12847694;19;20406;-67
2023/01/16 01:24:51;;;;;;;7.15;3.83;;;;;;;;;;12847247;19;20484;-66
2023/01/16 01:29:08;;;;;;;10.60;4.30;;;;;;;;;;12845009;19;20494;-66
2023/01/16 01:33:26;;;;;;;8.20;4.60;;;;;;;;;;12846339;19;20041;-67
2023/01/16 01:37:44;;;;;;;7.55;4.97;;;;;;;;;;12845146;19;20698;-69
2023/01/16 01:46:46;;;;;;;8.07;4.85;;;;;;;;;;12843742;19;20433;-65
2023/01/16 01:51:10;;;;;;;11.30;5.22;;;;;;;;;;12842285;19;20035;-66
2023/01/16 01:55:28;;;;;;;11.70;6.63;;;;;;;;;;12845588;19;20114;-65
2023/01/16 02:00:00;;;;;;;16.53;7.03;;;;;;;;;;12842264;19;20021;-66
2023/01/16 02:04:23;;;;;;;14.43;7.07;;;;;;;;;;12843065;19;20740;-65
2023/01/16 02:08:44;;;;;;;16.73;8.38;;;;;;;;;;12843125;19;20409;-65
2023/01/16 02:13:02;;;;;;;16.95;8.45;;;;;;;;;;12839994;19;20421;-66
2023/01/16 02:22:15;;;;;;;17.95;9.20;;;;;;;;;;12839823;19;20326;-66
2023/01/16 02:26:41;;;;;;;14.30;8.13;;;;;;;;;;12841065;19;20430;-65
2023/01/16 02:31:19;;;;;;;15.48;7.85;;;;;;;;;;12844145;19;20425;-65
2023/01/16 02:35:49;;;;;;;;;;;;;;;;;;12845668;19;20492;-65
2023/01/16 02:41:01;;;;;;;18.92;9.35;;;;;;;;;;12839138;19;20275;-65
2023/01/16 02:45:34;;;;;;;16.85;9.25;;;;;;;;;;12839587;19;20433;-65
2023/01/16 02:50:06;;;;;;;17.45;8.88;;;;;;;;;;12840185;19;20472;-66
2023/01/16 02:54:41;;;;;;;17.23;8.90;;;;;;;;;;12840311;19;20015;-66
2023/01/16 02:58:59;;;;;;;18.77;8.75;;;;;;;;;;12837508;19;20310;-66
2023/01/16 03:03:42;;;;;;;17.73;8.93;;;;;;;;;;12840211;19;20319;-67
2023/01/16 03:08:08;;;;;;;20.17;8.38;;;;;;;;;;12839390;19;20038;-65
2023/01/16 03:13:00;;;;;;;14.93;8.07;;;;;;;;;;12840769;19;20449;-65
2023/01/16 03:17:39;;;;;;;17.73;8.57;;;;;;;;;;12839818;19;20022;-66
2023/01/16 03:22:13;;;;;;;15.38;7.88;;;;;;;;;;12839844;19;20302;-65
2023/01/16 03:26:36;;;;;;;15.50;8.10;;;;;;;;;;12837720;19;20482;-65
2023/01/16 03:31:12;;;;;;;12.13;6.78;;;;;;;;;;12837579;19;20324;-65
2023/01/16 03:35:34;;;;;;;15.57;8.10;;;;;;;;;;12838218;19;20363;-65
2023/01/16 03:39:56;;;;;;;13.60;7.45;;;;;;;;;;12836698;19;20308;-65
2023/01/16 03:44:24;;;;;;;19.17;7.68;;;;;;;;;;12835536;19;20441;-65
2023/01/16 03:48:53;;;;;;;13.50;6.50;;;;;;;;;;12838584;19;20372;-67
2023/01/16 03:53:13;;;;;;;15.75;6.72;;;;;;;;;;12834779;19;20015;-65
2023/01/16 03:57:38;;;;;;;14.02;7.95;;;;;;;;;;12838174;19;20350;-65
2023/01/16 04:02:17;;;;;;;11.45;6.45;;;;;;;;;;12835740;19;20426;-65
2023/01/16 04:06:34;;;;;;;11.38;6.32;;;;;;;;;;12837249;19;20430;-65
2023/01/16 04:10:52;;;;;;;11.32;6.03;;;;;;;;;;12835604;19;20430;-67
2023/01/16 04:15:10;;;;;;;7.83;4.97;;;;;;;;;;12834053;19;20006;-65
2023/01/16 04:20:22;;;;;;;9.43;5.25;;;;;;;;;;12837225;19;20452;-67
2023/01/16 04:25:37;;;;;;;13.95;8.27;;;;;;;;;;12835110;19;20497;-66
2023/01/16 04:30:37;;;;;;;24.83;12.95;;;;;;;;;;12837773;19;20453;-65
2023/01/16 04:35:53;;;;;;;6.93;4.38;;;;;;;;;;12834965;19;20441;-66
2023/01/16 04:41:09;;;;;;;8.77;5.45;;;;;;;;;;12835474;19;20441;-66
2023/01/16 04:46:25;;;;;;;5.72;3.50;;;;;;;;;;12836830;19;20469;-67
2023/01/16 04:51:42;;;;;;;7.07;4.55;;;;;;;;;;12836515;19;20530;-66
2023/01/16 04:57:00;;;;;;;8.98;5.25;;;;;;;;;;12834925;19;20628;-66
2023/01/16 05:02:17;;;;;;;9.48;4.70;;;;;;;;;;12833361;19;20476;-66
2023/01/16 05:07:34;;;;;;;7.85;4.63;;;;;;;;;;12835180;19;20533;-65
2023/01/16 05:12:50;;;;;;;10.32;5.80;;;;;;;;;;12835203;19;20453;-65
2023/01/16 05:18:06;;;;;;;6.30;3.95;;;;;;;;;;12833992;19;20453;-65
2023/01/16 05:23:22;;;;;;;9.52;4.25;;;;;;;;;;12840389;19;20339;-67
2023/01/16 05:28:39;;;;;;;9.90;4.70;;;;;;;;;;12846368;19;20477;-65
2023/01/16 05:33:55;;;;;;;9.57;5.43;;;;;;;;;;12846237;19;20414;-65
2023/01/16 05:39:14;;;;;;;9.48;5.10;;;;;;;;;;12845157;19;20368;-68
2023/01/16 05:44:30;;;;;;;9.35;5.20;;;;;;;;;;12845391;19;20352;-66
2023/01/16 05:49:46;;;;;;;7.90;4.68;;;;;;;;;;12845134;19;20340;-66
2023/01/16 05:55:02;;;;;;;8.38;4.82;;;;;;;;;;12844528;19;20426;-65
2023/01/16 06:00:19;;;;;;;10.63;5.80;;;;;;;;;;12844207;19;20444;-68
2023/01/16 06:05:37;;;;;;;8.32;5.10;;;;;;;;;;12844392;19;20339;-65
2023/01/16 06:10:53;;;;;;;8.50;5.13;;;;;;;;;;12844468;19;20486;-66
2023/01/16 06:16:10;;;;;;;7.07;4.40;;;;;;;;;;12843266;19;20442;-67
2023/01/16 06:21:26;;;;;;;8.20;4.40;;;;;;;;;;12843901;19;20022;-65
2023/01/16 06:26:46;;;;;;;10.68;3.90;;;;;;;;;;12842355;19;20014;-66
2023/01/16 06:32:02;;;;;;;7.03;4.90;;;;;;;;;;12841893;19;20371;-65
2023/01/16 06:37:18;;;;;;;5.88;3.60;;;;;;;;;;12842637;19;20352;-67
2023/01/16 06:42:34;;;;;;;5.53;3.70;;;;;;;;;;12841864;19;20448;-66
2023/01/16 06:47:50;;;;;;;6.43;3.28;;;;;;;;;;12337404;19;10000579;-67
2023/01/16 06:53:07;;;;;;;5.60;3.00;;;;;;;;;;12839831;19;20469;-66
2023/01/16 06:58:23;;;;;;;4.97;3.47;;;;;;;;;;12841245;19;20437;-66
2023/01/16 07:03:39;;;;;;;6.32;3.85;;;;;;;;;;12839796;19;20678;-66
2023/01/16 07:08:56;;;;;;;5.68;2.88;;;;;;;;;;12841451;19;20346;-66
2023/01/16 07:25:38;;;;;;;6.18;4.13;;;;;;;;;;12836801;19;20438;-66
2023/01/16 07:30:55;;;;;;;5.88;4.07;;;;;;;;;;12840053;19;20465;-66
2023/01/16 07:36:11;;;;;;;6.53;3.75;;;;;;;;;;12839159;19;20456;-68
2023/01/16 07:41:27;;;;;;;10.40;4.65;;;;;;;;;;12839744;19;20010;-66
2023/01/16 07:46:44;;;;;;;29.30;12.32;;;;;;;;;;12838032;19;20029;-67
2023/01/16 07:52:00;;;;;;;14.68;6.95;;;;;;;;;;12838390;19;20560;-66
2023/01/16 07:57:16;;;;;;;10.43;5.60;;;;;;;;;;12838450;19;20441;-66
2023/01/16 08:02:32;;;;;;;13.20;6.82;;;;;;;;;;12837943;19;20007;-65
2023/01/16 08:07:49;;;;;;;7.63;5.20;;;;;;;;;;12838174;19;20480;-65
2023/01/16 08:13:06;;;;;;;7.25;3.78;;;;;;;;;;12837458;19;20473;-67
2023/01/16 08:18:22;;;;;;;7.00;3.55;;;;;;;;;;12836958;19;20339;-68
2023/01/16 08:23:46;;;;;;;6.78;3.67;;;;;;;;;;12838053;19;20299;-67
2023/01/16 08:29:03;;;;;;;6.15;2.90;;;;;;;;;;12836149;19;20517;-66
2023/01/16 08:34:19;;;;;;;6.20;2.47;;;;;;;;;;12835091;19;20014;-66
2023/01/16 08:39:35;;;;;;;3.97;2.63;;;;;;;;;;12835022;19;20352;-66
2023/01/16 08:56:02;;;;;;;3.95;2.67;;;;;;;;;;12834717;19;20487;-67
2023/01/16 09:01:19;;;;;;;4.65;2.80;;;;;;;;;;12848390;19;20339;-66
2023/01/16 09:06:37;;;;;;;5.72;3.10;;;;;;;;;;12849875;19;20371;-67
2023/01/16 09:17:34;;;;;;;3.92;2.40;;;;;;;;;;12846410;19;20021;-67
2023/01/16 09:22:50;;;;;;;5.65;2.78;;;;;;;;;;12846712;19;20473;-67
2023/01/16 09:28:06;;;;;;;5.75;3.25;;;;;;;;;;12842716;19;20414;-67
2023/01/16 09:33:22;;;;;;;4.93;2.67;;;;;;;;;;12846406;19;20018;-67
2023/01/16 09:38:38;;;;;;;6.63;3.60;;;;;;;;;;12846603;19;20418;-68
2023/01/16 09:44:14;;;;;;;2.92;1.80;;;;;;;;;;12845392;19;20010;-68
2023/01/16 09:49:32;;;;;;;6.70;2.42;;;;;;;;;;12842611;19;20322;-67
2023/01/16 10:00:41;;;;;;;5.28;2.65;;;;;;;;;;12843672;19;20010;-67
2023/01/16 10:06:04;;;;;;;4.07;2.20;;;;;;;;;;12843061;19;20026;-68
2023/01/16 10:11:58;;;;;;;5.47;3.13;;;;;;;;;;12842105;19;20449;-68
2023/01/16 10:17:39;;;;;;;4.32;2.63;;;;;;;;;;12841270;19;20039;-67
2023/01/16 10:23:17;;;;;;;7.75;3.83;;;;;;;;;;12843725;19;20469;-67
2023/01/16 10:29:02;;;;;;;10.05;4.00;;;;;;;;;;12841221;19;20355;-67
2023/01/16 10:34:41;;;;;;;3.80;2.17;;;;;;;;;;12840889;19;20363;-68
2023/01/16 10:39:58;;;;;;;4.55;2.85;;;;;;;;;;12842300;19;20479;-69
2023/01/16 10:51:35;;;;;;;6.88;2.25;;;;;;;;;;12762196;19;21011;-70
2023/01/16 10:56:57;;;;;;;6.40;2.47;;;;;;;;;;12814666;19;20014;-68
2023/01/16 11:02:41;;;;;;;5.55;2.83;;;;;;;;;;12842028;19;20439;-67
2023/01/16 11:08:19;;;;;;;3.75;2.40;;;;;;;;;;12838674;19;20315;-67
2023/01/16 11:19:27;;;;;;;6.85;2.75;;;;;;;;;;12836862;19;20430;-67
2023/01/16 11:24:46;;;;;;;5.63;2.78;;;;;;;;;;12837946;19;20029;-68
2023/01/16 11:30:02;;;;;;;4.15;2.35;;;;;;;;;;12838922;19;20436;-68
2023/01/16 11:35:19;;;;;;;5.72;2.38;;;;;;;;;;12836709;19;20015;-67
2023/01/16 11:40:48;;;;;;;3.10;2.10;;;;;;;;;;12837826;19;20374;-67
2023/01/16 11:46:33;;;;;;;4.15;1.52;;;;;;;;;;12836447;19;20470;-67
2023/01/16 11:51:55;;;;;;;2.90;1.58;;;;;;;;;;12838913;19;20106;-67
2023/01/16 11:57:33;;;;;;;3.72;1.73;;;;;;;;;;12836388;19;20434;-66
2023/01/16 12:03:08;;;;;;;2.58;1.75;;;;;;;;;;12838223;19;20338;-67
2023/01/16 12:08:50;;;;;;;3.50;1.67;;;;;;;;;;12835994;19;20116;-67
2023/01/16 12:14:17;;;;;;;3.78;2.03;;;;;;;;;;12837045;19;20434;-68
2023/01/16 12:19:43;;;;;;;1.63;0.80;;;;;;;;;;12837074;19;20484;-70
2023/01/16 12:25:18;;;;;;;1.25;0.80;;;;;;;;;;12837681;19;20434;-66
2023/01/16 12:30:37;;;;;;;4.45;1.80;;;;;;;;;;12835796;19;20361;-67
2023/01/16 12:36:21;;;;;;;3.67;1.60;;;;;;;;;;12835888;19;20016;-67
2023/01/16 12:47:38;;;;;;;4.93;2.50;;;;;;;;;;12835405;19;20513;-67
2023/01/16 12:53:05;;;;;;;3.20;1.77;;;;;;;;;;12834598;19;20501;-66
2023/01/16 12:58:43;;;;;;;3.78;1.75;;;;;;;;;;12834365;19;20386;-66
2023/01/16 13:04:08;;;;;;;2.28;1.42;;;;;;;;;;12832614;19;20473;-68
2023/01/16 13:09:32;;;;;;;6.30;2.40;;;;;;;;;;12833520;19;20422;-67
2023/01/16 13:14:56;;;;;;;5.88;2.38;;;;;;;;;;12835083;19;20707;-66
2023/01/16 13:20:15;;;;;;;2.22;1.45;;;;;;;;;;12831560;19;20430;-66
2023/01/16 13:25:45;;;;;;;4.13;1.60;;;;;;;;;;12832898;19;20299;-67
2023/01/16 13:31:04;;;;;;;4.75;1.65;;;;;;;;;;12834169;19;20342;-67
2023/01/16 13:36:42;;;;;;;5.38;2.78;;;;;;;;;;12831424;19;20477;-66
2023/01/16 13:42:17;;;;;;;4.35;2.58;;;;;;;;;;12833963;19;20363;-67
2023/01/16 13:47:35;;;;;;;6.57;3.58;;;;;;;;;;12842907;19;20369;-66
2023/01/16 13:52:52;;;;;;;14.13;7.50;;;;;;;;;;12845015;19;20426;-66
2023/01/16 13:58:26;;;;;;;19.02;8.25;;;;;;;;;;12844204;19;20473;-66
2023/01/16 14:03:42;;;;;;;6.50;3.47;;;;;;;;;;12845215;19;20469;-67
2023/01/16 14:09:09;;;;;;;5.22;2.95;;;;;;;;;;12843826;19;20371;-66
2023/01/16 14:20:21;;;;;;;6.00;3.57;;;;;;;;;;12842869;19;20352;-66
2023/01/16 14:25:38;;;;;;;7.32;3.80;;;;;;;;;;12844495;19;20429;-66
2023/01/16 14:30:56;;;;;;;8.18;4.85;;;;;;;;;;12843614;19;20356;-66
2023/01/16 14:36:15;;;;;;;8.18;3.53;;;;;;;;;;12841846;19;20046;-66
2023/01/16 14:58:45;;;;;;;16.60;9.13;;;;;;;;;;12842227;19;20434;-67
2023/01/16 15:04:07;;;;;;;14.18;7.30;;;;;;;;;;12841136;19;20438;-66
2023/01/16 15:09:33;;;;;;;23.98;11.68;;;;;;;;;;12840371;19;20418;-68
2023/01/16 15:15:01;;;;;;;13.98;8.68;;;;;;;;;;12838903;19;20433;-67
2023/01/16 15:26:12;;;;;;;49.03;18.48;;;;;;;;;;12839074;19;20364;-66
2023/01/16 15:31:30;;;;;;;51.22;17.48;;;;;;;;;;12837848;19;20347;-66
2023/01/16 15:36:54;;;;;;;25.20;9.77;;;;;;;;;;12837150;19;20437;-65
2023/01/16 15:48:13;;;;;;;16.58;7.95;;;;;;;;;;12837610;19;20454;-66
2023/01/16 15:53:34;;;;;;;5.90;3.45;;;;;;;;;;12837608;19;20422;-65
2023/01/16 15:59:01;;;;;;;21.35;9.23;;;;;;;;;;12837985;19;20391;-65
2023/01/16 16:04:18;;;;;;;20.27;8.82;;;;;;;;;;12836792;19;20385;-65
2023/01/16 16:09:35;;;;;;;5.70;2.63;;;;;;;;;;12837538;19;20480;-66
2023/01/16 16:20:45;;;;;;;18.40;11.10;;;;;;;;;;12835423;19;20003;-65
2023/01/16 16:26:19;;;;;;;12.95;6.25;;;;;;;;;;12834056;19;20306;-66
2023/01/16 16:31:37;;;;;;;32.13;11.20;;;;;;;;;;12835133;19;20038;-66
2023/01/16 16:36:59;;;;;;;15.13;6.72;;;;;;;;;;12835525;19;20456;-69
2023/01/16 16:42:30;;;;;;;9.50;4.57;;;;;;;;;;12833565;19;20437;-66
2023/01/16 16:47:49;;;;;;;15.98;7.70;;;;;;;;;;12835498;19;20330;-66
2023/01/16 16:53:28;;;;;;;23.80;8.88;;;;;;;;;;12833261;19;20449;-67
2023/01/16 16:58:46;;;;;;;19.05;9.55;;;;;;;;;;12836188;19;20579;-66
2023/01/16 17:04:17;;;;;;;17.83;8.02;;;;;;;;;;12834300;19;20443;-66
2023/01/16 17:09:34;;;;;;;9.00;5.10;;;;;;;;;;12833876;19;20436;-65
2023/01/16 17:14:51;;;;;;;23.45;11.43;;;;;;;;;;12832901;19;20362;-67
2023/01/16 17:20:26;;;;;;;14.30;7.40;;;;;;;;;;12842979;19;20441;-65
2023/01/16 17:25:42;;;;;;;10.68;6.10;;;;;;;;;;12846101;19;20677;-66
2023/01/16 17:30:54;;;;;;;10.07;6.10;;;;;;;;;;12845213;19;20003;-65
2023/01/16 17:36:12;;;;;;;5.38;3.63;;;;;;;;;;12844281;19;20465;-66
2023/01/16 17:46:49;;;;;;;7.07;4.10;;;;;;;;;;12845540;19;20311;-66
2023/01/16 17:51:07;;;;;;;10.13;6.63;;;;;;;;;;12843908;19;20429;-67
2023/01/16 18:01:07;;;;;;;12.80;6.63;;;;;;;;;;12844122;19;20317;-66
2023/01/16 18:06:23;;;;;;;7.93;4.18;;;;;;;;;;12845562;19;20330;-68
2023/01/16 18:17:23;;;;;;;7.05;4.85;;;;;;;;;;12842953;19;20563;-67
2023/01/16 18:22:40;;;;;;;7.28;4.43;;;;;;;;;;12844396;19;20006;-66
2023/01/16 18:27:57;;;;;;;7.20;4.93;;;;;;;;;;12842525;19;20429;-66
2023/01/16 18:33:13;;;;;;;12.18;5.60;;;;;;;;;;12842392;19;20319;-67
2023/01/16 19:06:28;;;;;;;7.53;3.88;;;;;;;;;;12840623;19;20387;-65
2023/01/16 19:11:45;;;;;;;9.32;5.03;;;;;;;;;;12840912;19;20306;-65
2023/01/16 19:17:04;;;;;;;9.18;5.10;;;;;;;;;;12841179;19;20003;-66
2023/01/16 19:22:22;;;;;;;9.35;4.82;;;;;;;;;;12841042;19;20326;-67
2023/01/16 19:27:38;;;;;;;9.17;5.00;;;;;;;;;;12841327;19;20358;-66
2023/01/16 19:32:55;;;;;;;8.73;5.13;;;;;;;;;;12838774;19;20046;-65
2023/01/16 19:38:11;;;;;;;13.40;5.63;;;;;;;;;;12839167;19;20506;-67
2023/01/16 19:49:02;;;;;;;10.35;6.25;;;;;;;;;;12838164;19;20473;-68
2023/01/16 19:54:18;;;;;;;12.50;6.30;;;;;;;;;;12839877;19;20421;-66
2023/01/16 19:59:34;;;;;;;8.40;5.30;;;;;;;;;;12839417;19;20310;-65
2023/01/16 20:04:50;;;;;;;11.80;5.75;;;;;;;;;;12839222;19;20026;-66
2023/01/16 20:10:07;;;;;;;5.97;3.70;;;;;;;;;;12837368;19;20396;-66
2023/01/16 20:15:23;;;;;;;10.95;6.55;;;;;;;;;;12838584;19;20465;-66
2023/01/16 20:20:40;;;;;;;7.63;5.32;;;;;;;;;;12839161;19;20461;-66
2023/01/16 20:25:56;;;;;;;9.77;4.65;;;;;;;;;;12835831;19;20459;-66
2023/01/16 20:31:19;;;;;;;13.52;7.07;;;;;;;;;;12836619;19;20014;-66
2023/01/16 20:36:35;;;;;;;39.47;14.63;;;;;;;;;;12837198;19;20396;-66
2023/01/16 20:47:26;;;;;;;32.42;14.48;;;;;;;;;;12835731;19;20394;-67
2023/01/16 20:52:43;;;;;;;45.83;15.38;;;;;;;;;;12840068;19;20426;-66
2023/01/16 20:57:59;;;;;;;300.60;87.32;;;;;;;;;;12849148;19;20485;-65
2023/01/16 21:03:15;;;;;;;39.50;19.65;;;;;;;;;;12846734;19;20492;-66
2023/01/16 21:08:31;;;;;;;336.05;99.40;;;;;;;;;;12847067;19;20534;-65
2023/01/16 21:14:09;;;;;;;209.15;49.92;;;;;;;;;;12847379;19;20347;-66
2023/01/16 21:25:00;;;;;;;131.55;28.35;;;;;;;;;;12844158;19;20505;-67
2023/01/16 21:30:18;;;;;;;195.88;42.53;;;;;;;;;;12845636;19;20606;-66
2023/01/16 21:35:36;;;;;;;216.27;46.13;;;;;;;;;;12845824;19;20438;-66
2023/01/16 21:40:53;;;;;;;62.30;16.63;;;;;;;;;;12845782;19;20426;-67
2023/01/16 21:46:28;;;;;;;143.48;29.17;;;;;;;;;;12843966;19;20434;-67
2023/01/16 21:51:45;;;;;;;249.32;46.42;;;;;;;;;;12843576;19;20489;-67
2023/01/16 21:57:01;;;;;;;363.52;68.28;;;;;;;;;;12843416;19;20354;-66
2023/01/16 22:02:20;;;;;;;192.85;40.17;;;;;;;;;;12845178;19;20430;-67
2023/01/16 22:07:37;;;;;;;310.02;63.40;;;;;;;;;;12843131;19;20421;-66
2023/01/16 22:18:30;;;;;;;140.52;35.13;;;;;;;;;;12843153;19;20453;-66
2023/01/16 22:23:54;;;;;;;392.10;77.28;;;;;;;;;;12841350;19;20015;-66
2023/01/16 22:29:12;;;;;;;330.17;58.17;;;;;;;;;;12842501;19;20811;-66
2023/01/16 22:34:28;;;;;;;119.47;24.67;;;;;;;;;;12842498;19;20468;-65
2023/01/16 22:39:44;;;;;;;212.35;39.00;;;;;;;;;;12842326;19;20423;-66
2023/01/16 22:50:35;;;;;;;62.42;16.90;;;;;;;;;;12841965;19;20493;-65
2023/01/16 22:55:57;;;;;;;30.25;12.45;;;;;;;;;;12841829;19;20507;-66
2023/01/16 23:01:21;;;;;;;23.27;9.90;;;;;;;;;;12841226;19;20437;-68
2023/01/16 23:06:37;;;;;;;61.67;16.75;;;;;;;;;;12840089;19;20348;-66
2023/01/16 23:12:25;;;;;;;31.83;11.98;;;;;;;;;;12839361;19;20308;-65
2023/01/16 23:16:48;;;;;;;38.05;11.18;;;;;;;;;;12837794;19;20469;-66
2023/01/16 23:21:11;;;;;;;71.85;17.73;;;;;;;;;;12839627;19;20099;-66
2023/01/16 23:25:28;;;;;;;140.13;30.10;;;;;;;;;;12839375;19;20432;-67
2023/01/16 23:29:46;;;;;;;144.77;29.30;;;;;;;;;;12840009;19;20015;-66
2023/01/16 23:34:03;;;;;;;115.18;23.75;;;;;;;;;;12836833;19;20455;-66
2023/01/16 23:38:21;;;;;;;107.38;23.67;;;;;;;;;;12839258;19;20454;-66
2023/01/16 23:47:19;;;;;;;147.60;29.88;;;;;;;;;;12837881;19;20322;-66
2023/01/16 23:51:37;;;;;;;100.32;23.55;;;;;;;;;;12839224;19;20437;-65
2023/01/16 23:55:56;;;;;;;77.75;21.40;;;;;;;;;;12838836;19;20472;-65
